createdAt,value
2018-01-02T00:01:57.433Z,5.50
2018-01-02T00:06:40.206Z,5.40
2018-01-02T00:11:22.928Z,5.40
2018-01-02T00:16:06.285Z,5.30
2018-01-02T00:20:49.010Z,5.10
2018-01-02T00:25:31.723Z,5.10
2018-01-02T00:30:14.514Z,4.90
2018-01-02T00:34:57.216Z,4.90
2018-01-02T00:39:40.058Z,4.80
2018-01-02T00:44:23.558Z,4.80
2018-01-02T00:49:06.504Z,4.80
2018-01-02T00:53:49.203Z,4.90
2018-01-02T00:58:31.904Z,4.90
2018-01-02T01:03:14.704Z,4.90
2018-01-02T01:07:57.530Z,4.80
2018-01-02T01:12:41.084Z,4.70
2018-01-02T01:17:23.991Z,4.70
2018-01-02T01:22:07.851Z,4.60
2018-01-02T01:26:50.801Z,4.60
2018-01-02T01:31:33.789Z,4.60
2018-01-02T01:36:16.721Z,4.50
2018-01-02T01:40:59.630Z,4.40
2018-01-02T01:45:42.507Z,4.30
2018-01-02T01:50:32.203Z,4.30
2018-01-02T01:55:15.844Z,4.30
2018-01-02T01:59:58.703Z,4.30
2018-01-02T02:04:41.652Z,4.30
2018-01-02T02:09:24.553Z,4.30
2018-01-02T02:14:07.421Z,4.20
2018-01-02T02:18:50.486Z,4.20
2018-01-02T02:23:33.333Z,4.10
2018-01-02T02:28:16.069Z,4.10
2018-01-02T02:32:58.847Z,4.10
2018-01-02T02:37:41.600Z,4.10
2018-01-02T02:42:24.396Z,4.10
2018-01-02T02:47:08.016Z,4.10
2018-01-02T02:51:50.887Z,4.20
2018-01-02T02:56:33.673Z,4.30
2018-01-02T03:01:16.409Z,4.30
2018-01-02T03:05:59.132Z,4.40
2018-01-02T03:10:41.810Z,4.40
2018-01-02T03:15:24.564Z,4.30
2018-01-02T03:20:07.245Z,4.30
2018-01-02T03:24:49.920Z,4.40
2018-01-02T03:29:32.644Z,4.40
2018-01-02T03:34:16.141Z,4.50
2018-01-02T03:38:58.898Z,4.50
2018-01-02T03:43:41.649Z,4.60
2018-01-02T03:48:24.337Z,4.60
2018-01-02T03:53:07.110Z,4.70
2018-01-02T03:57:50.693Z,4.80
2018-01-02T04:02:33.386Z,4.80
2018-01-02T04:07:16.910Z,4.70
2018-01-02T04:12:00.493Z,4.70
2018-01-02T04:16:47.175Z,4.70
2018-01-02T04:21:29.848Z,4.90
2018-01-02T04:26:13.424Z,4.80
2018-01-02T04:30:56.193Z,4.80
2018-01-02T04:35:38.969Z,4.70
2018-01-02T04:40:21.633Z,4.80
2018-01-02T04:45:06.616Z,4.90
2018-01-02T04:49:49.344Z,4.90
2018-01-02T04:54:32.099Z,4.90
2018-01-02T04:59:14.871Z,4.90
2018-01-02T05:03:58.372Z,5.10
2018-01-02T05:08:41.194Z,5.10
2018-01-02T05:13:23.945Z,5.20
2018-01-02T05:18:06.817Z,5.20
2018-01-02T05:22:49.600Z,5.30
2018-01-02T05:27:33.168Z,5.30
2018-01-02T05:32:15.930Z,5.30
2018-01-02T05:36:58.810Z,5.10
2018-01-02T05:41:41.617Z,5.00
2018-01-02T05:46:24.499Z,4.80
2018-01-02T05:51:07.492Z,4.70
2018-01-02T05:55:50.343Z,4.70
2018-01-02T06:00:33.314Z,4.60
2018-01-02T06:05:16.947Z,4.40
2018-01-02T06:10:00.412Z,4.30
2018-01-02T06:14:43.918Z,4.20
2018-01-02T06:19:26.840Z,4.20
2018-01-02T06:24:09.733Z,4.10
2018-01-02T06:28:52.612Z,3.90
2018-01-02T06:33:35.538Z,3.80
2018-01-02T06:38:19.148Z,3.80
2018-01-02T06:43:04.800Z,3.70
2018-01-02T06:47:47.692Z,3.80
2018-01-02T06:52:30.557Z,3.80
2018-01-02T06:57:13.388Z,3.80
2018-01-02T07:01:56.682Z,3.80
2018-01-02T07:06:39.621Z,3.70
2018-01-02T07:11:22.522Z,3.60
2018-01-02T07:16:06.386Z,3.50
2018-01-02T07:20:49.232Z,3.50
2018-01-02T07:25:33.004Z,3.30
2018-01-02T07:30:15.847Z,3.30
2018-01-02T07:34:58.782Z,3.30
2018-01-02T07:39:41.672Z,3.30
2018-01-02T07:44:24.619Z,3.30
2018-01-02T07:49:08.296Z,3.30
2018-01-02T07:53:51.103Z,3.30
2018-01-02T07:58:34.103Z,3.30
2018-01-02T08:03:16.955Z,3.40
2018-01-02T08:07:59.723Z,3.40
2018-01-02T08:12:42.577Z,3.30
2018-01-02T08:17:25.652Z,3.30
2018-01-02T08:22:08.512Z,3.40
2018-01-02T08:26:51.476Z,3.40
2018-01-02T08:31:34.615Z,3.30
2018-01-02T08:36:17.558Z,3.30
2018-01-02T08:41:01.200Z,3.20
2018-01-02T08:45:46.120Z,3.20
2018-01-02T08:50:28.933Z,3.20
2018-01-02T08:55:12.539Z,3.00
2018-01-02T08:59:55.369Z,3.00
2018-01-02T09:04:38.918Z,2.90
2018-01-02T09:09:22.979Z,2.90
2018-01-02T09:14:10.696Z,2.90
2018-01-02T09:18:53.632Z,2.90
2018-01-02T09:23:36.694Z,2.90
2018-01-02T09:28:19.832Z,2.90
2018-01-02T09:33:05.897Z,3.00
2018-01-02T09:37:48.748Z,3.00
2018-01-02T09:42:31.628Z,3.00
2018-01-02T09:47:15.062Z,3.00
2018-01-02T09:51:58.389Z,3.00
2018-01-02T09:56:41.260Z,2.90
2018-01-02T10:01:24.241Z,2.90
2018-01-02T10:06:07.128Z,2.90
2018-01-02T10:10:49.905Z,3.00
2018-01-02T10:15:34.020Z,3.00
2018-01-02T10:20:16.875Z,3.00
2018-01-02T10:24:59.729Z,3.00
2018-01-02T10:29:43.321Z,3.10
2018-01-02T10:34:26.148Z,3.10
2018-01-02T10:39:08.922Z,3.10
2018-01-02T10:43:51.944Z,3.20
2018-01-02T10:48:35.509Z,3.20
2018-01-02T10:53:18.471Z,3.10
2018-01-02T10:58:07.624Z,3.20
2018-01-02T11:02:51.401Z,3.20
2018-01-02T11:07:34.229Z,3.30
2018-01-02T11:12:17.535Z,3.30
2018-01-02T11:17:00.360Z,3.20
2018-01-02T11:21:48.183Z,3.40
2018-01-02T11:26:31.099Z,3.50
2018-01-02T11:31:15.958Z,3.50
2018-01-02T11:36:13.855Z,3.50
2018-01-02T11:40:56.741Z,3.50
2018-01-02T11:45:39.551Z,3.50
2018-01-02T11:50:23.148Z,3.70
2018-01-02T11:55:07.566Z,3.60
2018-01-02T11:59:50.456Z,3.80
2018-01-02T12:04:33.332Z,4.00
2018-01-02T12:09:16.196Z,4.20
2018-01-02T12:13:59.057Z,4.30
2018-01-02T12:18:41.935Z,4.30
2018-01-02T12:23:24.777Z,4.40
2018-01-02T12:28:07.779Z,4.50
2018-01-02T12:32:50.825Z,4.50
2018-01-02T12:37:34.585Z,4.60
2018-01-02T12:42:17.457Z,4.60
2018-01-02T12:47:04.691Z,4.60
2018-01-02T12:51:47.614Z,4.50
2018-01-02T12:56:30.470Z,4.50
2018-01-02T13:01:13.358Z,4.30
2018-01-02T13:05:56.276Z,4.40
2018-01-02T13:10:39.248Z,4.40
2018-01-02T13:15:22.085Z,4.40
2018-01-02T13:20:06.911Z,4.30
2018-01-02T13:24:50.100Z,4.30
2018-01-02T13:29:32.904Z,4.30
2018-01-02T13:34:15.884Z,4.20
2018-01-02T13:38:58.762Z,4.20
2018-01-02T13:43:41.607Z,4.20
2018-01-02T13:48:24.519Z,4.20
2018-01-02T13:53:07.370Z,4.30
2018-01-02T13:57:50.301Z,4.30
2018-01-02T14:02:33.174Z,4.30
2018-01-02T14:07:16.046Z,4.30
2018-01-02T14:11:58.933Z,4.30
2018-01-02T14:16:41.773Z,4.40
2018-01-02T14:21:24.681Z,4.40
2018-01-02T14:26:07.873Z,4.40
2018-01-02T14:30:50.657Z,4.40
2018-01-02T14:35:34.636Z,4.40
2018-01-02T14:40:17.355Z,4.40
2018-01-02T14:45:00.427Z,4.40
2018-01-02T14:49:43.285Z,4.30
2018-01-02T14:54:25.817Z,4.20
2018-01-02T14:59:08.416Z,4.20
2018-01-02T15:03:50.835Z,4.10
2018-01-02T15:08:36.106Z,4.10
2018-01-02T15:13:18.964Z,4.10
2018-01-02T15:18:07.496Z,4.00
2018-01-02T15:22:49.954Z,4.00
2018-01-02T15:27:32.472Z,3.90
2018-01-02T15:32:14.951Z,3.70
2018-01-02T15:36:57.373Z,3.80
2018-01-02T15:41:40.638Z,3.80
2018-01-02T15:46:23.019Z,3.80
2018-01-02T15:51:06.448Z,3.80
2018-01-02T15:55:48.940Z,3.80
2018-01-02T16:00:31.253Z,3.90
2018-01-02T16:05:13.679Z,3.90
2018-01-02T16:09:55.996Z,3.90
2018-01-02T16:14:38.360Z,3.90
2018-01-02T16:19:20.682Z,3.90
2018-01-02T16:24:05.909Z,3.90
2018-01-02T16:28:48.277Z,3.90
2018-01-02T16:33:30.696Z,4.00
2018-01-02T16:38:13.058Z,4.00
2018-01-02T16:42:55.455Z,4.00
2018-01-02T16:47:37.928Z,4.00
2018-01-02T16:52:20.414Z,3.90
2018-01-02T16:57:06.937Z,3.60
2018-01-02T17:01:49.529Z,3.40
2018-01-02T17:06:31.999Z,3.20
2018-01-02T17:11:14.558Z,3.10
2018-01-02T17:15:57.039Z,3.00
2018-01-02T17:20:39.598Z,2.90
2018-01-02T17:25:22.146Z,3.00
2018-01-02T17:30:06.540Z,3.10
2018-01-02T17:34:49.141Z,3.20
2018-01-02T17:39:31.808Z,3.30
2018-01-02T17:44:15.144Z,3.30
2018-01-02T17:48:57.745Z,3.20
2018-01-02T17:53:40.347Z,3.20
2018-01-02T17:58:22.939Z,3.20
2018-01-02T18:03:06.385Z,3.10
2018-01-02T18:07:50.727Z,3.10
2018-01-02T18:12:35.201Z,3.10
2018-01-02T18:17:17.861Z,3.10
2018-01-02T18:22:03.349Z,3.20
2018-01-02T18:26:47.090Z,3.20
2018-01-02T18:31:34.407Z,3.20
2018-01-02T18:36:19.540Z,3.30
2018-01-02T18:41:06.601Z,3.30
2018-01-02T18:45:50.839Z,3.50
2018-01-02T18:50:36.930Z,3.50
2018-01-02T18:55:20.654Z,3.50
2018-01-02T19:00:07.486Z,3.70
2018-01-02T19:04:50.076Z,3.70
2018-01-02T19:09:35.086Z,3.80
2018-01-02T19:14:17.815Z,3.90
2018-01-02T19:19:00.262Z,3.90
2018-01-02T19:23:44.060Z,3.90
2018-01-02T19:28:26.590Z,3.80
2018-01-02T19:33:09.174Z,3.90
2018-01-02T19:37:52.290Z,4.00
2018-01-02T19:42:34.958Z,4.00
2018-01-02T19:47:17.530Z,4.00
2018-01-02T19:52:00.104Z,3.90
2018-01-02T19:56:44.129Z,3.60
2018-01-02T20:01:27.616Z,3.40
2018-01-02T20:06:10.063Z,3.20
2018-01-02T20:10:52.572Z,3.10
2018-01-02T20:15:35.069Z,3.10
2018-01-02T20:20:17.519Z,3.10
2018-01-02T20:25:00.050Z,3.10
2018-01-02T20:29:42.534Z,3.30
2018-01-02T20:34:28.714Z,3.20
2018-01-02T20:39:15.886Z,3.10
2018-01-02T20:43:58.400Z,2.80
2018-01-02T20:48:40.973Z,2.70
2018-01-02T20:53:23.433Z,2.70
2018-01-02T20:58:06.020Z,2.40
2018-01-02T21:02:48.490Z,2.40
2018-01-02T21:07:30.933Z,2.30
2018-01-02T21:12:13.365Z,2.20
2018-01-02T21:16:55.785Z,2.00
2018-01-02T21:21:39.210Z,1.90
2018-01-02T21:26:21.837Z,1.80
2018-01-02T21:31:06.273Z,1.80
2018-01-02T21:35:48.874Z,1.80
2018-01-02T21:40:31.444Z,1.80
2018-01-02T21:45:14.759Z,1.70
2018-01-02T21:49:57.158Z,1.70
2018-01-02T21:54:40.121Z,1.90
2018-01-02T21:59:22.727Z,1.90
2018-01-02T22:04:06.281Z,1.90
2018-01-02T22:08:48.721Z,1.90
2018-01-02T22:13:31.202Z,1.90
2018-01-02T22:18:13.667Z,1.70
2018-01-02T22:22:56.145Z,1.40
2018-01-02T22:27:38.677Z,1.30
2018-01-02T22:32:23.597Z,1.30
2018-01-02T22:37:06.434Z,1.30
2018-01-02T22:41:48.931Z,1.30
2018-01-02T22:46:31.457Z,1.20
2018-01-02T22:51:15.215Z,1.20
2018-01-02T22:55:57.977Z,1.10
2018-01-02T23:00:40.537Z,1.00
2018-01-02T23:05:24.180Z,1.10
2018-01-02T23:10:06.888Z,1.10
2018-01-02T23:14:49.554Z,1.10
2018-01-02T23:19:33.124Z,1.00
2018-01-02T23:24:15.644Z,0.80
2018-01-02T23:28:58.143Z,0.80
2018-01-02T23:33:40.612Z,0.70
2018-01-02T23:38:23.218Z,0.60
2018-01-02T23:43:05.787Z,0.80
2018-01-02T23:47:48.306Z,0.90
2018-01-02T23:52:31.539Z,0.50
2018-01-02T23:57:13.989Z,0.50
